Fairdale, Pennsylvania
Current Conditions -  °F | °C
As of 3:53 PM on Tuesday 27 Jan 2015 (Local Time) from KMGW Reporting Station
Light Snow Light Snow  
Wind Chill: 11°   Ceiling: 2300
Heat Index: 22°   Visibility: 1.5mi
Dew Point: 14°   Wind: 10mph
Humidity: 72%   Direction: 310°NW
Pressure: 29.98"   Gusts: NA
Location:  39.864°N, 80.0039°W
Report Text: KMGW 272053Z 31009KT 1 1/2SM -SN FEW015 BKN023 OVC032 M06/M10 A2998 RMK AO2 SLP169 P0000 60000 T10561100 53016
Loading
Personal Weather Stations






























Interactive Weather Map New forecast layout! Learn more

10-Day Weather Forecast

Advertisements
Track Severe Weather on mobile